Time;durP1;ratioP1;P1;durP2;ratioP2;P2;SDS_P1;SDS_P2;PMS_P1;PMS_P2;Temp;Humidity;BMP_temperature;BMP_pressure;BME280_temperature;BME280_humidity;BME280_pressure;Samples;Min_cycle;Max_cycle;Signal;HPM_P1;HPM_P2
2024/01/18 00:00:09;;;;;;;;;;;;;;;;;;5135250;27;20408;-43
2024/01/18 00:02:36;;;;;;;;;;;;;;;;;;5135425;27;19955;-42
2024/01/18 00:05:02;;;;;;;;;;;;;;;;;;5135166;27;19968;-44
2024/01/18 00:07:28;;;;;;;;;;;;;;;;;;5135224;27;19928;-43
2024/01/18 00:09:54;;;;;;;;;;;;;;;;;;5135250;27;19983;-43
2024/01/18 00:12:20;;;;;;;;;;;;;;;;;;5135097;27;19923;-42
2024/01/18 00:14:47;;;;;;;;;;;;;;;;;;5134574;27;19924;-42
2024/01/18 00:17:13;;;;;;;;;;;;;;;;;;5134939;27;19927;-42
2024/01/18 00:19:39;;;;;;;;;;;;;;;;;;5134781;27;20390;-42
2024/01/18 00:22:05;;;;;;;;;;;;;;;;;;5134637;27;20336;-43
2024/01/18 00:24:32;;;;;;;;;;;;;;;;;;5134669;27;20352;-43
2024/01/18 00:26:58;;;;;;;;;;;;;;;;;;5133956;27;19931;-43
2024/01/18 00:29:24;;;;;;;;;;;;;;;;;;5134679;27;19924;-45
2024/01/18 00:31:50;;;;;;;;;;;;;;;;;;5134822;27;19923;-43
2024/01/18 00:34:16;;;;;;;;;;;;;;;;;;5134694;27;19923;-42
2024/01/18 00:36:42;;;;;;;;;;;;;;;;;;5134712;27;19924;-44
2024/01/18 00:39:11;;;;;;;;;;;;;;;;;;5134716;27;19963;-44
2024/01/18 00:41:38;;;;;;;;;;;;;;;;;;5134555;27;19924;-43
2024/01/18 00:44:04;;;;;;;;;;;;;;;;;;5134400;27;20394;-42
2024/01/18 00:46:30;;;;;;;;;;;;;;;;;;5134566;27;19952;-42
2024/01/18 00:48:56;;;;;;;;;;;;;;;;;;5134466;27;19972;-43
2024/01/18 00:51:23;;;;;;;;;;;;;;;;;;5134319;27;19924;-44
2024/01/18 00:53:49;;;;;;;;;;;;;;;;;;5134454;27;19927;-42
2024/01/18 00:56:15;;;;;;;;;;;;;;;;;;5134298;27;20412;-42
2024/01/18 00:58:41;;;;;;;;;;;;;;;;;;5134365;27;20378;-41
2024/01/18 01:01:07;;;;;;;;;;;;;;;;;;5134375;27;20416;-42
2024/01/18 01:03:34;;;;;;;;;;;;;;;;;;5134376;27;19923;-43
2024/01/18 01:06:00;;;;;;;;;;;;;;;;;;5134366;27;20010;-43
2024/01/18 01:08:26;;;;;;;;;;;;;;;;;;5134450;28;19977;-41
2024/01/18 01:10:52;;;;;;;;;;;;;;;;;;5134279;28;20018;-44
2024/01/18 01:13:18;;;;;;;;;;;;;;;;;;5134114;28;19923;-42
2024/01/18 01:15:45;;;;;;;;;;;;;;;;;;5134130;28;19972;-43
2024/01/18 01:18:11;;;;;;;;;;;;;;;;;;5134017;28;20010;-44
2024/01/18 01:20:37;;;;;;;;;;;;;;;;;;5133916;28;19923;-45
2024/01/18 01:23:03;;;;;;;;;;;;;;;;;;5134065;28;19924;-43
2024/01/18 01:25:29;;;;;;;;;;;;;;;;;;5134258;28;19927;-42
2024/01/18 01:27:56;;;;;;;;;;;;;;;;;;5134072;28;19953;-45
2024/01/18 01:30:22;;;;;;;;;;;;;;;;;;5134147;28;19924;-41
2024/01/18 01:32:48;;;;;;;;;;;;;;;;;;5134067;28;19923;-43
2024/01/18 01:35:14;;;;;;;;;;;;;;;;;;5134144;27;19931;-42
2024/01/18 01:37:41;;;;;;;;;;;;;;;;;;5135710;27;19923;-43
2024/01/18 01:40:07;;;;;;;;;;;;;;;;;;5138177;27;19923;-42
2024/01/18 01:42:34;;;;;;;;;;;;;;;;;;5137867;27;19979;-41
2024/01/18 01:45:00;;;;;;;;;;;;;;;;;;5137772;27;19927;-42
2024/01/18 01:47:26;;;;;;;;;;;;;;;;;;5137866;27;19931;-46
2024/01/18 01:49:52;;;;;;;;;;;;;;;;;;5137776;27;19930;-41
2024/01/18 01:52:18;;;;;;;;;;;;;;;;;;5137610;27;19923;-42
2024/01/18 01:54:45;;;;;;;;;;;;;;;;;;5137863;27;19928;-43
2024/01/18 01:57:11;;;;;;;;;;;;;;;;;;5137600;27;20287;-43
2024/01/18 01:59:37;;;;;;;;;;;;;;;;;;5137738;27;19927;-42
2024/01/18 02:02:03;;;;;;;;;;;;;;;;;;5137718;27;19923;-43
2024/01/18 02:04:29;;;;;;;;;;;;;;;;;;5137646;27;20439;-42
2024/01/18 02:06:57;;;;;;;;;;;;;;;;;;5137631;27;19923;-42
2024/01/18 02:09:24;;;;;;;;;;;;;;;;;;5137576;27;19923;-42
2024/01/18 02:11:50;;;;;;;;;;;;;;;;;;5137335;27;19927;-42
2024/01/18 02:14:16;;;;;;;;;;;;;;;;;;5137305;27;19931;-43
2024/01/18 02:16:42;;;;;;;;;;;;;;;;;;5137285;27;20347;-41
2024/01/18 02:19:09;;;;;;;;;;;;;;;;;;5137165;27;20412;-44
2024/01/18 02:21:35;;;;;;;;;;;;;;;;;;5137305;27;19930;-43
2024/01/18 02:24:01;;;;;;;;;;;;;;;;;;5137141;27;19923;-43
2024/01/18 02:26:27;;;;;;;;;;;;;;;;;;5137106;27;19930;-42
2024/01/18 02:28:54;;;;;;;;;;;;;;;;;;5137127;27;19923;-44
2024/01/18 02:31:20;;;;;;;;;;;;;;;;;;5137049;27;19988;-42
2024/01/18 02:33:46;;;;;;;;;;;;;;;;;;5137193;27;19923;-43
2024/01/18 02:36:12;;;;;;;;;;;;;;;;;;5137101;27;20022;-42
2024/01/18 02:38:39;;;;;;;;;;;;;;;;;;5136684;27;19930;-45
2024/01/18 02:41:05;;;;;;;;;;;;;;;;;;5136827;27;19923;-43
2024/01/18 02:43:31;;;;;;;;;;;;;;;;;;5136674;27;19924;-44
2024/01/18 02:45:57;;;;;;;;;;;;;;;;;;5136527;27;20375;-42
2024/01/18 02:48:23;;;;;;;;;;;;;;;;;;5136384;27;20420;-43
2024/01/18 02:50:50;;;;;;;;;;;;;;;;;;5136094;27;19976;-42
2024/01/18 02:53:16;;;;;;;;;;;;;;;;;;5136724;27;19923;-44
2024/01/18 02:55:42;;;;;;;;;;;;;;;;;;5136645;27;19975;-42
2024/01/18 02:58:08;;;;;;;;;;;;;;;;;;5136545;27;19928;-42
2024/01/18 03:00:34;;;;;;;;;;;;;;;;;;5136634;27;19923;-42
2024/01/18 03:03:00;;;;;;;;;;;;;;;;;;5136506;27;19927;-41
2024/01/18 03:05:27;;;;;;;;;;;;;;;;;;5136441;27;19970;-42
2024/01/18 03:07:53;;;;;;;;;;;;;;;;;;5136508;27;20360;-43
2024/01/18 03:10:19;;;;;;;;;;;;;;;;;;5136146;27;19928;-41
2024/01/18 03:12:46;;;;;;;;;;;;;;;;;;5136250;27;19923;-43
2024/01/18 03:15:12;;;;;;;;;;;;;;;;;;5136170;27;19931;-43
2024/01/18 03:17:38;;;;;;;;;;;;;;;;;;5136137;27;20010;-42
2024/01/18 03:20:07;;;;;;;;;;;;;;;;;;5136067;27;19924;-43
2024/01/18 03:22:33;;;;;;;;;;;;;;;;;;5136099;27;19931;-42
2024/01/18 03:24:59;;;;;;;;;;;;;;;;;;5135956;27;20376;-41
2024/01/18 03:27:26;;;;;;;;;;;;;;;;;;5136139;27;20431;-41
2024/01/18 03:29:52;;;;;;;;;;;;;;;;;;5136009;27;19924;-44
2024/01/18 03:32:18;;;;;;;;;;;;;;;;;;5136040;27;19923;-43
2024/01/18 03:34:44;;;;;;;;;;;;;;;;;;5135933;27;19976;-42
2024/01/18 03:37:10;;;;;;;;;;;;;;;;;;5135877;27;20094;-46
2024/01/18 03:39:37;;;;;;;;;;;;;;;;;;5135604;27;20371;-43
2024/01/18 03:42:03;;;;;;;;;;;;;;;;;;5135528;27;19972;-43
2024/01/18 03:44:29;;;;;;;;;;;;;;;;;;5135526;27;19923;-44
2024/01/18 03:46:55;;;;;;;;;;;;;;;;;;5135557;27;19923;-42
2024/01/18 03:49:22;;;;;;;;;;;;;;;;;;5135488;27;19924;-43
2024/01/18 03:51:48;;;;;;;;;;;;;;;;;;5135464;27;19923;-42
2024/01/18 03:54:14;;;;;;;;;;;;;;;;;;5135539;27;19924;-42
2024/01/18 03:56:40;;;;;;;;;;;;;;;;;;5135381;27;19972;-41
2024/01/18 03:59:06;;;;;;;;;;;;;;;;;;5135498;27;19976;-42
2024/01/18 04:01:32;;;;;;;;;;;;;;;;;;5135444;27;19995;-42
2024/01/18 04:04:01;;;;;;;;;;;;;;;;;;5135253;27;19927;-41
2024/01/18 04:06:27;;;;;;;;;;;;;;;;;;5135209;27;19923;-42
2024/01/18 04:08:53;;;;;;;;;;;;;;;;;;5135160;27;19923;-43
2024/01/18 04:11:19;;;;;;;;;;;;;;;;;;5134925;27;20375;-42
2024/01/18 04:13:47;;;;;;;;;;;;;;;;;;5134977;27;19927;-43
2024/01/18 04:16:13;;;;;;;;;;;;;;;;;;5135026;27;19930;-41
2024/01/18 04:18:39;;;;;;;;;;;;;;;;;;5134866;27;19923;-42
2024/01/18 04:21:05;;;;;;;;;;;;;;;;;;5134944;27;19923;-42
2024/01/18 04:23:31;;;;;;;;;;;;;;;;;;5134843;27;20308;-42
2024/01/18 04:25:58;;;;;;;;;;;;;;;;;;5134660;27;20316;-43
2024/01/18 04:28:24;;;;;;;;;;;;;;;;;;5134744;27;20007;-42
2024/01/18 04:30:50;;;;;;;;;;;;;;;;;;5134893;27;19928;-43
2024/01/18 04:33:18;;;;;;;;;;;;;;;;;;5134881;27;20013;-43
2024/01/18 04:35:45;;;;;;;;;;;;;;;;;;5134735;27;19931;-43
2024/01/18 04:38:11;;;;;;;;;;;;;;;;;;5134568;27;19984;-44
2024/01/18 04:40:37;;;;;;;;;;;;;;;;;;5134505;27;19972;-43
2024/01/18 04:43:03;;;;;;;;;;;;;;;;;;5134553;27;19975;-43
2024/01/18 04:45:29;;;;;;;;;;;;;;;;;;5134511;27;19959;-41
2024/01/18 04:47:56;;;;;;;;;;;;;;;;;;5134441;27;19924;-44
2024/01/18 04:50:24;;;;;;;;;;;;;;;;;;5134570;27;20007;-42
2024/01/18 04:52:51;;;;;;;;;;;;;;;;;;5134501;27;19923;-43
2024/01/18 04:55:17;;;;;;;;;;;;;;;;;;5134411;27;20274;-43
2024/01/18 04:57:43;;;;;;;;;;;;;;;;;;5134508;27;19924;-45
2024/01/18 05:00:10;;;;;;;;;;;;;;;;;;5134582;27;19968;-42
2024/01/18 05:02:37;;;;;;;;;;;;;;;;;;5134367;27;19969;-44
2024/01/18 05:05:03;;;;;;;;;;;;;;;;;;5134011;27;19953;-43
2024/01/18 05:07:29;;;;;;;;;;;;;;;;;;5134411;27;19923;-42
2024/01/18 05:09:57;;;;;;;;;;;;;;;;;;5134294;28;19930;-45
2024/01/18 05:12:23;;;;;;;;;;;;;;;;;;5136826;27;19930;-43
2024/01/18 05:14:49;;;;;;;;;;;;;;;;;;5141040;27;19923;-41
2024/01/18 05:17:16;;;;;;;;;;;;;;;;;;5141064;27;19973;-42
2024/01/18 05:19:43;;;;;;;;;;;;;;;;;;5141012;27;20402;-43
2024/01/18 05:22:09;;;;;;;;;;;;;;;;;;5141200;27;19923;-42
2024/01/18 05:24:35;;;;;;;;;;;;;;;;;;5141030;27;19927;-43
2024/01/18 05:27:01;;;;;;;;;;;;;;;;;;5141111;27;19927;-41
2024/01/18 05:29:27;;;;;;;;;;;;;;;;;;5141035;27;20026;-43
2024/01/18 05:31:54;;;;;;;;;;;;;;;;;;5140929;27;19992;-43
2024/01/18 05:34:20;;;;;;;;;;;;;;;;;;5140695;27;19927;-45
2024/01/18 05:36:47;;;;;;;;;;;;;;;;;;5140186;27;20006;-43
2024/01/18 05:39:14;;;;;;;;;;;;;;;;;;5120289;27;19934;-43
2024/01/18 05:41:40;;;;;;;;;;;;;;;;;;5122887;27;19927;-44
2024/01/18 05:44:06;;;;;;;;;;;;;;;;;;5136753;27;20244;-43
2024/01/18 05:46:34;;;;;;;;;;;;;;;;;;5133522;27;21419;-45
2024/01/18 05:49:02;;;;;;;;;;;;;;;;;;5129126;27;19931;-45
2024/01/18 05:51:28;;;;;;;;;;;;;;;;;;5130435;27;20450;-44
2024/01/18 05:53:55;;;;;;;;;;;;;;;;;;5129000;27;19935;-44
2024/01/18 05:56:21;;;;;;;;;;;;;;;;;;5129069;27;19924;-44
2024/01/18 05:58:47;;;;;;;;;;;;;;;;;;5130650;27;19932;-44
2024/01/18 06:01:13;;;;;;;;;;;;;;;;;;5129148;27;20355;-46
2024/01/18 06:03:40;;;;;;;;;;;;;;;;;;5126952;27;19931;-45
2024/01/18 06:06:06;;;;;;;;;;;;;;;;;;5124816;27;19938;-41
2024/01/18 06:08:32;;;;;;;;;;;;;;;;;;5140498;27;19928;-44
2024/01/18 06:10:58;;;;;;;;;;;;;;;;;;5124393;27;19923;-46
2024/01/18 06:13:25;;;;;;;;;;;;;;;;;;5119908;28;19923;-46
2024/01/18 06:15:51;;;;;;;;;;;;;;;;;;5119926;27;19973;-43
2024/01/18 06:18:17;;;;;;;;;;;;;;;;;;5122007;27;19939;-45
2024/01/18 06:20:43;;;;;;;;;;;;;;;;;;5139525;27;19934;-47
2024/01/18 06:23:10;;;;;;;;;;;;;;;;;;5124616;27;20405;-44
2024/01/18 06:25:37;;;;;;;;;;;;;;;;;;5127214;27;19924;-42
2024/01/18 06:28:04;;;;;;;;;;;;;;;;;;5133808;27;19927;-42
2024/01/18 06:30:30;;;;;;;;;;;;;;;;;;5136694;27;19973;-42
2024/01/18 06:32:56;;;;;;;;;;;;;;;;;;5135994;27;19981;-42
2024/01/18 06:35:22;;;;;;;;;;;;;;;;;;5136243;27;19924;-45
2024/01/18 06:37:48;;;;;;;;;;;;;;;;;;5136875;27;19969;-44
2024/01/18 06:40:17;;;;;;;;;;;;;;;;;;5136254;27;19970;-42
2024/01/18 06:42:43;;;;;;;;;;;;;;;;;;5136449;27;20366;-43
2024/01/18 06:45:09;;;;;;;;;;;;;;;;;;5136311;27;19938;-42
2024/01/18 06:47:36;;;;;;;;;;;;;;;;;;5135434;27;19931;-42
2024/01/18 06:50:02;;;;;;;;;;;;;;;;;;5135035;27;19927;-45
2024/01/18 06:52:28;;;;;;;;;;;;;;;;;;5136106;27;19978;-42
2024/01/18 06:54:54;;;;;;;;;;;;;;;;;;5136464;27;19923;-43
2024/01/18 06:57:20;;;;;;;;;;;;;;;;;;5132224;27;19923;-43
2024/01/18 06:59:47;;;;;;;;;;;;;;;;;;5134722;27;19923;-41
2024/01/18 07:02:14;;;;;;;;;;;;;;;;;;5132983;27;19931;-42
2024/01/18 07:04:40;;;;;;;;;;;;;;;;;;5130579;27;20403;-44
2024/01/18 07:07:07;;;;;;;;;;;;;;;;;;5130425;27;20309;-42
2024/01/18 07:09:33;;;;;;;;;;;;;;;;;;5121706;27;19927;-41
2024/01/18 07:11:59;;;;;;;;;;;;;;;;;;5132660;27;20010;-42
2024/01/18 07:14:26;;;;;;;;;;;;;;;;;;5133096;27;19924;-43
2024/01/18 07:16:55;;;;;;;;;;;;;;;;;;5135023;27;19930;-42
2024/01/18 07:19:21;;;;;;;;;;;;;;;;;;5133637;27;19924;-42
2024/01/18 07:21:47;;;;;;;;;;;;;;;;;;5131754;27;20437;-42
2024/01/18 07:24:13;;;;;;;;;;;;;;;;;;5130803;27;19927;-42
2024/01/18 07:26:39;;;;;;;;;;;;;;;;;;5130590;27;19927;-43
2024/01/18 07:29:06;;;;;;;;;;;;;;;;;;5132401;27;19923;-42
2024/01/18 07:31:32;;;;;;;;;;;;;;;;;;5123219;27;19976;-46
2024/01/18 07:33:58;;;;;;;;;;;;;;;;;;5133964;27;19976;-43
2024/01/18 07:36:24;;;;;;;;;;;;;;;;;;5132403;27;19989;-43
2024/01/18 07:38:50;;;;;;;;;;;;;;;;;;5132095;27;19924;-43
2024/01/18 07:41:17;;;;;;;;;;;;;;;;;;5134577;27;19924;-48
2024/01/18 07:43:43;;;;;;;;;;;;;;;;;;5123377;27;19971;-54
2024/01/18 07:46:09;;;;;;;;;;;;;;;;;;5119731;27;19923;-55
2024/01/18 07:48:35;;;;;;;;;;;;;;;;;;5126943;27;19924;-55
2024/01/18 07:51:01;;;;;;;;;;;;;;;;;;5127609;27;19942;-54
2024/01/18 07:53:27;;;;;;;;;;;;;;;;;;5128408;27;19934;-55
2024/01/18 07:55:54;;;;;;;;;;;;;;;;;;5123324;27;20390;-54
2024/01/18 07:58:20;;;;;;;;;;;;;;;;;;5118427;27;19934;-54
2024/01/18 08:00:46;;;;;;;;;;;;;;;;;;5124296;27;20372;-54
2024/01/18 08:03:12;;;;;;;;;;;;;;;;;;5115090;27;20058;-55
2024/01/18 08:05:39;;;;;;;;;;;;;;;;;;5123014;27;19927;-54
2024/01/18 08:08:05;;;;;;;;;;;;;;;;;;5121778;27;20368;-54
2024/01/18 08:10:31;;;;;;;;;;;;;;;;;;5121039;27;20420;-54
2024/01/18 08:12:59;;;;;;;;;;;;;;;;;;5116116;27;19961;-54
2024/01/18 08:15:25;;;;;;;;;;;;;;;;;;5114403;27;20968;-55
2024/01/18 08:17:51;;;;;;;;;;;;;;;;;;5110938;27;20094;-55
2024/01/18 08:20:17;;;;;;;;;;;;;;;;;;5111766;27;19984;-55
2024/01/18 08:22:44;;;;;;;;;;;;;;;;;;5112763;27;20390;-56
2024/01/18 08:25:10;;;;;;;;;;;;;;;;;;5113850;27;19935;-55
2024/01/18 08:27:36;;;;;;;;;;;;;;;;;;5115586;27;19937;-55
2024/01/18 08:30:03;;;;;;;;;;;;;;;;;;5108466;27;19936;-55
2024/01/18 08:32:33;;;;;;;;;;;;;;;;;;5109708;27;20079;-55
2024/01/18 08:35:00;;;;;;;;;;;;;;;;;;5109013;27;20458;-54
2024/01/18 08:37:26;;;;;;;;;;;;;;;;;;5102700;27;19931;-55
2024/01/18 08:39:52;;;;;;;;;;;;;;;;;;5111007;27;19955;-55
2024/01/18 08:42:18;;;;;;;;;;;;;;;;;;5107736;27;20488;-55
2024/01/18 08:44:45;;;;;;;;;;;;;;;;;;5111562;27;20031;-56
2024/01/18 08:47:12;;;;;;;;;;;;;;;;;;5108076;27;20443;-55
2024/01/18 08:49:38;;;;;;;;;;;;;;;;;;5106549;27;20283;-56
2024/01/18 08:52:04;;;;;;;;;;;;;;;;;;5109620;27;19988;-55
2024/01/18 08:54:31;;;;;;;;;;;;;;;;;;5110593;27;21308;-56
2024/01/18 08:56:57;;;;;;;;;;;;;;;;;;5110566;27;19931;-56
2024/01/18 08:59:24;;;;;;;;;;;;;;;;;;5112810;27;19931;-55
2024/01/18 09:01:50;;;;;;;;;;;;;;;;;;5112811;27;19975;-55
2024/01/18 09:04:16;;;;;;;;;;;;;;;;;;5111355;27;19985;-59
2024/01/18 09:06:42;;;;;;;;;;;;;;;;;;5111759;27;20586;-55
2024/01/18 09:09:10;;;;;;;;;;;;;;;;;;5113071;27;20435;-56
2024/01/18 09:11:36;;;;;;;;;;;;;;;;;;5112678;28;19939;-55
2024/01/18 09:14:03;;;;;;;;;;;;;;;;;;5107359;28;19939;-43
2024/01/18 09:16:30;;;;;;;;;;;;;;;;;;5111152;28;20384;-42
2024/01/18 09:18:56;;;;;;;;;;;;;;;;;;5112768;28;19927;-42
2024/01/18 09:21:35;;;;;;;;;;;;;;;;;;5116160;28;19932;-41
2024/01/18 09:24:02;;;;;;;;;;;;;;;;;;5112196;28;21655;-42
2024/01/18 09:26:29;;;;;;;;;;;;;;;;;;5113738;28;19935;-42
2024/01/18 09:28:55;;;;;;;;;;;;;;;;;;5112608;27;19992;-43
2024/01/18 09:31:22;;;;;;;;;;;;;;;;;;5114466;27;19981;-43
2024/01/18 09:33:56;;;;;;;;;;;;;;;;;;5110283;28;19928;-41
2024/01/18 09:36:22;;;;;;;;;;;;;;;;;;5108357;28;19932;-42
2024/01/18 09:38:48;;;;;;;;;;;;;;;;;;5109321;28;19932;-41
2024/01/18 09:41:14;;;;;;;;;;;;;;;;;;5119209;28;20450;-42
2024/01/18 09:43:41;;;;;;;;;;;;;;;;;;5124522;28;19932;-40
2024/01/18 09:46:07;;;;;;;;;;;;;;;;;;5125021;28;19931;-44
2024/01/18 09:48:33;;;;;;;;;;;;;;;;;;5109069;28;19966;-44
2024/01/18 09:50:59;;;;;;;;;;;;;;;;;;5118563;28;19927;-42
2024/01/18 09:53:25;;;;;;;;;;;;;;;;;;5114040;28;19981;-42
2024/01/18 09:55:52;;;;;;;;;;;;;;;;;;5121892;28;19927;-43
2024/01/18 09:58:18;;;;;;;;;;;;;;;;;;5120144;27;19976;-42
2024/01/18 10:00:44;;;;;;;;;;;;;;;;;;5121651;27;20383;-42
2024/01/18 10:03:11;;;;;;;;;;;;;;;;;;5124637;27;19935;-42
2024/01/18 10:05:37;;;;;;;;;;;;;;;;;;5126116;27;20258;-40
2024/01/18 10:08:03;;;;;;;;;;;;;;;;;;5120439;27;19927;-41
2024/01/18 10:10:29;;;;;;;;;;;;;;;;;;5119626;27;19927;-43
2024/01/18 10:12:56;;;;;;;;;;;;;;;;;;5120467;27;19932;-41
2024/01/18 10:15:22;;;;;;;;;;;;;;;;;;5121132;27;20436;-41
2024/01/18 10:17:48;;;;;;;;;;;;;;;;;;5116403;27;19924;-45
2024/01/18 10:20:14;;;;;;;;;;;;;;;;;;5122190;27;19947;-44
2024/01/18 10:22:41;;;;;;;;;;;;;;;;;;5119184;27;19931;-42
2024/01/18 10:25:08;;;;;;;;;;;;;;;;;;5124105;27;19931;-41
2024/01/18 10:27:34;;;;;;;;;;;;;;;;;;5126126;27;20455;-44
2024/01/18 10:30:00;;;;;;;;;;;;;;;;;;5119685;27;20612;-41
2024/01/18 10:32:26;;;;;;;;;;;;;;;;;;5121086;27;19928;-41
2024/01/18 10:34:53;;;;;;;;;;;;;;;;;;5122268;27;19955;-44
2024/01/18 10:37:20;;;;;;;;;;;;;;;;;;5121659;27;20106;-42
2024/01/18 10:39:47;;;;;;;;;;;;;;;;;;5118459;27;19962;-44
2024/01/18 10:42:14;;;;;;;;;;;;;;;;;;5122891;27;19923;-46
2024/01/18 10:44:40;;;;;;;;;;;;;;;;;;5127018;27;19946;-43
2024/01/18 10:47:06;;;;;;;;;;;;;;;;;;5127044;27;19935;-42
2024/01/18 10:49:33;;;;;;;;;;;;;;;;;;5123805;27;19943;-41
2024/01/18 10:51:59;;;;;;;;;;;;;;;;;;5119422;27;19927;-43
2024/01/18 10:54:26;;;;;;;;;;;;;;;;;;5118555;27;20378;-43
2024/01/18 10:56:57;;;;;;;;;;;;;;;;;;5123264;27;19927;-42
2024/01/18 10:59:23;;;;;;;;;;;;;;;;;;5126376;27;19924;-42
2024/01/18 11:01:51;;;;;;;;;;;;;;;;;;5122807;27;19927;-42
2024/01/18 11:04:17;;;;;;;;;;;;;;;;;;5121125;27;19959;-46
2024/01/18 11:06:44;;;;;;;;;;;;;;;;;;5123333;27;19927;-43
2024/01/18 11:09:12;;;;;;;;;;;;;;;;;;5121138;27;19923;-45
2024/01/18 11:11:39;;;;;;;;;;;;;;;;;;5123401;27;19931;-43
2024/01/18 11:14:05;;;;;;;;;;;;;;;;;;5124217;27;19927;-43
2024/01/18 11:16:31;;;;;;;;;;;;;;;;;;5127105;27;19923;-41
2024/01/18 11:18:58;;;;;;;;;;;;;;;;;;5125669;27;19923;-42
2024/01/18 11:21:27;;;;;;;;;;;;;;;;;;5125994;27;19923;-41
2024/01/18 11:23:53;;;;;;;;;;;;;;;;;;5124783;27;19930;-45
2024/01/18 11:26:21;;;;;;;;;;;;;;;;;;5119675;27;19935;-42
2024/01/18 11:28:47;;;;;;;;;;;;;;;;;;5124504;27;20050;-43
2024/01/18 11:31:13;;;;;;;;;;;;;;;;;;5120837;27;19927;-42
2024/01/18 11:33:40;;;;;;;;;;;;;;;;;;5122565;27;19939;-44
2024/01/18 11:36:06;;;;;;;;;;;;;;;;;;5124079;27;19931;-41
2024/01/18 11:38:32;;;;;;;;;;;;;;;;;;5120009;27;19950;-41
2024/01/18 11:40:59;;;;;;;;;;;;;;;;;;5124154;27;19923;-44
2024/01/18 11:43:25;;;;;;;;;;;;;;;;;;5115932;27;19946;-41
2024/01/18 11:45:51;;;;;;;;;;;;;;;;;;5117589;27;19932;-43
2024/01/18 11:48:18;;;;;;;;;;;;;;;;;;5105862;27;20026;-43
2024/01/18 11:50:45;;;;;;;;;;;;;;;;;;5117520;27;19975;-43
2024/01/18 11:53:12;;;;;;;;;;;;;;;;;;5112049;27;19927;-42
2024/01/18 11:55:38;;;;;;;;;;;;;;;;;;5067397;28;19989;-42
2024/01/18 11:58:04;;;;;;;;;;;;;;;;;;5067541;28;20392;-43
2024/01/18 12:00:31;;;;;;;;;;;;;;;;;;5062097;28;19925;-45
2024/01/18 12:02:58;;;;;;;;;;;;;;;;;;5065608;28;20010;-43
2024/01/18 12:05:24;;;;;;;;;;;;;;;;;;5065962;28;20509;-43
2024/01/18 12:07:50;;;;;;;;;;;;;;;;;;5063044;28;19940;-45
2024/01/18 12:10:16;;;;;;;;;;;;;;;;;;5055544;28;20011;-41
2024/01/18 12:12:44;;;;;;;;;;;;;;;;;;5069008;27;19924;-41
2024/01/18 12:15:11;;;;;;;;;;;;;;;;;;5123274;27;19931;-43
2024/01/18 12:17:37;;;;;;;;;;;;;;;;;;5127201;27;19923;-44
2024/01/18 12:20:04;;;;;;;;;;;;;;;;;;5121304;27;20280;-41
2024/01/18 12:22:31;;;;;;;;;;;;;;;;;;5124240;27;19923;-44
2024/01/18 12:24:57;;;;;;;;;;;;;;;;;;5121705;27;20438;-42
2024/01/18 12:27:25;;;;;;;;;;;;;;;;;;5113730;27;20321;-42
2024/01/18 12:29:51;;;;;;;;;;;;;;;;;;5117837;27;19923;-42
2024/01/18 12:32:18;;;;;;;;;;;;;;;;;;5112159;27;19928;-44
2024/01/18 12:34:44;;;;;;;;;;;;;;;;;;5114716;27;19923;-44
2024/01/18 12:37:10;;;;;;;;;;;;;;;;;;5115895;27;19942;-46
2024/01/18 12:39:36;;;;;;;;;;;;;;;;;;5117639;27;20012;-46
2024/01/18 12:42:03;;;;;;;;;;;;;;;;;;5124033;27;19933;-42
2024/01/18 12:44:29;;;;;;;;;;;;;;;;;;5119764;27;20341;-43
2024/01/18 12:46:56;;;;;;;;;;;;;;;;;;5124966;27;20429;-43
2024/01/18 12:49:22;;;;;;;;;;;;;;;;;;5127624;27;19953;-43
2024/01/18 12:51:48;;;;;;;;;;;;;;;;;;5120908;27;19923;-44
2024/01/18 12:54:14;;;;;;;;;;;;;;;;;;5125660;27;19938;-46
2024/01/18 12:56:41;;;;;;;;;;;;;;;;;;5127739;27;19927;-44
2024/01/18 12:59:07;;;;;;;;;;;;;;;;;;5129871;27;20436;-46
2024/01/18 13:01:33;;;;;;;;;;;;;;;;;;5120004;27;20329;-45
2024/01/18 13:03:59;;;;;;;;;;;;;;;;;;5127204;27;20276;-44
2024/01/18 13:06:26;;;;;;;;;;;;;;;;;;5127593;27;20014;-44
2024/01/18 13:08:52;;;;;;;;;;;;;;;;;;5129612;27;20018;-43
2024/01/18 13:11:18;;;;;;;;;;;;;;;;;;5130348;27;20324;-44
2024/01/18 13:13:44;;;;;;;;;;;;;;;;;;5128748;28;20257;-42
2024/01/18 13:16:11;;;;;;;;;;;;;;;;;;5120950;28;20367;-43
2024/01/18 13:18:37;;;;;;;;;;;;;;;;;;5129248;27;19928;-43
2024/01/18 13:21:03;;;;;;;;;;;;;;;;;;5125414;28;19938;-43
2024/01/18 13:23:29;;;;;;;;;;;;;;;;;;5125507;28;19928;-46
2024/01/18 13:25:56;;;;;;;;;;;;;;;;;;5046071;28;19925;-43
2024/01/18 13:28:22;;;;;;;;;;;;;;;;;;5043382;28;20388;-41
2024/01/18 13:30:48;;;;;;;;;;;;;;;;;;5041589;28;19978;-42
2024/01/18 13:33:14;;;;;;;;;;;;;;;;;;5042098;28;19932;-41
2024/01/18 13:35:41;;;;;;;;;;;;;;;;;;5040085;28;19987;-41
2024/01/18 13:38:07;;;;;;;;;;;;;;;;;;5043349;28;20491;-42
2024/01/18 13:40:36;;;;;;;;;;;;;;;;;;5038389;28;19928;-42
2024/01/18 13:43:02;;;;;;;;;;;;;;;;;;5044104;27;19967;-42
2024/01/18 13:45:29;;;;;;;;;;;;;;;;;;5119388;27;20275;-44
2024/01/18 13:47:55;;;;;;;;;;;;;;;;;;5122960;27;19928;-42
2024/01/18 13:50:21;;;;;;;;;;;;;;;;;;5122615;27;19959;-45
2024/01/18 13:52:48;;;;;;;;;;;;;;;;;;5123786;27;19923;-43
2024/01/18 13:55:15;;;;;;;;;;;;;;;;;;5121006;27;20034;-44
2024/01/18 13:57:41;;;;;;;;;;;;;;;;;;5128719;27;19931;-43
2024/01/18 14:00:09;;;;;;;;;;;;;;;;;;5121107;27;19935;-46
2024/01/18 14:02:36;;;;;;;;;;;;;;;;;;5124080;27;19923;-44
2024/01/18 14:05:03;;;;;;;;;;;;;;;;;;5121435;27;19952;-42
2024/01/18 14:07:29;;;;;;;;;;;;;;;;;;5125012;27;20536;-43
2024/01/18 14:09:55;;;;;;;;;;;;;;;;;;5126157;27;19943;-45
2024/01/18 14:12:21;;;;;;;;;;;;;;;;;;5130749;27;19939;-41
2024/01/18 14:14:48;;;;;;;;;;;;;;;;;;5123666;27;19939;-43
2024/01/18 14:17:14;;;;;;;;;;;;;;;;;;5124881;27;19977;-42
2024/01/18 14:19:40;;;;;;;;;;;;;;;;;;5123705;27;20387;-42
2024/01/18 14:22:06;;;;;;;;;;;;;;;;;;5118299;27;19928;-41
2024/01/18 14:24:33;;;;;;;;;;;;;;;;;;5118853;27;20011;-45
2024/01/18 14:26:59;;;;;;;;;;;;;;;;;;5131096;27;19934;-44
2024/01/18 14:29:27;;;;;;;;;;;;;;;;;;5123429;27;19923;-41
2024/01/18 14:31:54;;;;;;;;;;;;;;;;;;5131457;27;19923;-43
2024/01/18 14:34:20;;;;;;;;;;;;;;;;;;5121894;27;19927;-43
2024/01/18 14:36:47;;;;;;;;;;;;;;;;;;5124626;27;20295;-44
2024/01/18 14:39:16;;;;;;;;;;;;;;;;;;5121987;27;19938;-42
2024/01/18 14:41:42;;;;;;;;;;;;;;;;;;5126578;27;19938;-43
2024/01/18 14:44:08;;;;;;;;;;;;;;;;;;5128340;27;19927;-44
2024/01/18 14:46:34;;;;;;;;;;;;;;;;;;5124775;27;20360;-45
2024/01/18 14:49:00;;;;;;;;;;;;;;;;;;5131448;27;20372;-43
2024/01/18 14:51:27;;;;;;;;;;;;;;;;;;5122512;27;19924;-43
2024/01/18 14:53:53;;;;;;;;;;;;;;;;;;5124524;27;19973;-42
2024/01/18 14:56:19;;;;;;;;;;;;;;;;;;5129974;27;20058;-44
2024/01/18 14:58:45;;;;;;;;;;;;;;;;;;5130993;27;19923;-41
2024/01/18 15:01:12;;;;;;;;;;;;;;;;;;5131022;27;19935;-42
2024/01/18 15:03:43;;;;;;;;;;;;;;;;;;5133859;27;19931;-42
2024/01/18 15:06:14;;;;;;;;;;;;;;;;;;5134074;27;19923;-42
2024/01/18 15:08:40;;;;;;;;;;;;;;;;;;5135207;27;19930;-43
2024/01/18 15:11:06;;;;;;;;;;;;;;;;;;5133665;27;19924;-42
2024/01/18 15:13:32;;;;;;;;;;;;;;;;;;5133375;27;19980;-43
2024/01/18 15:15:59;;;;;;;;;;;;;;;;;;5135681;27;19972;-44
2024/01/18 15:18:25;;;;;;;;;;;;;;;;;;5135713;27;19934;-42
2024/01/18 15:20:52;;;;;;;;;;;;;;;;;;5135372;27;19973;-41
2024/01/18 15:23:18;;;;;;;;;;;;;;;;;;5135478;27;20395;-44
2024/01/18 15:25:44;;;;;;;;;;;;;;;;;;5135524;27;19928;-43
2024/01/18 15:28:11;;;;;;;;;;;;;;;;;;5135294;27;20399;-42
2024/01/18 15:30:37;;;;;;;;;;;;;;;;;;5135519;27;19927;-43
2024/01/18 15:33:04;;;;;;;;;;;;;;;;;;5134919;27;19930;-44
2024/01/18 15:35:31;;;;;;;;;;;;;;;;;;5135116;27;20010;-42
2024/01/18 15:37:57;;;;;;;;;;;;;;;;;;5134990;27;19927;-42
2024/01/18 15:40:23;;;;;;;;;;;;;;;;;;5134998;27;19927;-43
2024/01/18 15:42:50;;;;;;;;;;;;;;;;;;5135439;27;19927;-43
2024/01/18 15:45:16;;;;;;;;;;;;;;;;;;5135626;27;19924;-41
2024/01/18 15:47:42;;;;;;;;;;;;;;;;;;5135509;27;20260;-43
2024/01/18 15:50:08;;;;;;;;;;;;;;;;;;5135004;27;20359;-41
2024/01/18 15:52:34;;;;;;;;;;;;;;;;;;5135419;27;19924;-42
2024/01/18 15:55:01;;;;;;;;;;;;;;;;;;5135095;27;19923;-43
2024/01/18 15:57:28;;;;;;;;;;;;;;;;;;5135318;27;19971;-42
2024/01/18 15:59:56;;;;;;;;;;;;;;;;;;5135424;27;19928;-47
2024/01/18 16:02:22;;;;;;;;;;;;;;;;;;5134917;27;20034;-43
2024/01/18 16:04:51;;;;;;;;;;;;;;;;;;5135135;27;19976;-44
2024/01/18 16:07:20;;;;;;;;;;;;;;;;;;5135162;27;19927;-42
2024/01/18 16:09:46;;;;;;;;;;;;;;;;;;5135214;27;19923;-44
2024/01/18 16:12:12;;;;;;;;;;;;;;;;;;5135084;27;20367;-47
2024/01/18 16:14:43;;;;;;;;;;;;;;;;;;5134935;27;20281;-42
2024/01/18 16:17:09;;;;;;;;;;;;;;;;;;5135066;27;19980;-44
2024/01/18 16:19:35;;;;;;;;;;;;;;;;;;5135155;27;20358;-45
2024/01/18 16:22:01;;;;;;;;;;;;;;;;;;5135164;27;20010;-42
2024/01/18 16:24:27;;;;;;;;;;;;;;;;;;5134885;27;20022;-43
2024/01/18 16:26:54;;;;;;;;;;;;;;;;;;5135073;27;19947;-44
2024/01/18 16:29:22;;;;;;;;;;;;;;;;;;5133673;27;20335;-44
2024/01/18 16:31:48;;;;;;;;;;;;;;;;;;5132768;27;20268;-44
2024/01/18 16:34:14;;;;;;;;;;;;;;;;;;5134576;27;20340;-45
2024/01/18 16:36:40;;;;;;;;;;;;;;;;;;5134677;27;19927;-42
2024/01/18 16:39:06;;;;;;;;;;;;;;;;;;5134607;27;20274;-42